createdAt,value
2019-02-15T00:00:15.163Z,20.8
2019-02-15T00:01:05.493Z,20.8
2019-02-15T00:01:55.783Z,20.8
2019-02-15T00:02:44.538Z,20.8
2019-02-15T00:03:36.220Z,20.8
2019-02-15T00:04:26.013Z,20.9
2019-02-15T00:05:15.530Z,20.9
2019-02-15T00:06:06.137Z,20.9
2019-02-15T00:06:55.600Z,21
2019-02-15T00:07:46.533Z,21
2019-02-15T00:08:35.970Z,21.1
2019-02-15T00:13:36.915Z,21.3
2019-02-15T00:14:26.947Z,21.3
2019-02-15T00:15:16.427Z,21.2
2019-02-15T00:16:06.564Z,21.2
2019-02-15T00:16:56.299Z,21.3
2019-02-15T00:17:46.865Z,21.3
2019-02-15T00:18:36.832Z,21.2
2019-02-15T00:21:56.894Z,21.1
2019-02-15T00:22:46.669Z,21.1
2019-02-15T00:23:36.978Z,21.1
2019-02-15T00:24:27.391Z,21.1
2019-02-15T00:25:17.114Z,21
2019-02-15T00:26:07.172Z,20.9
2019-02-15T00:26:57.546Z,20.9
2019-02-15T00:27:46.456Z,21
2019-02-15T00:28:37.349Z,21
2019-02-15T00:29:27.956Z,21
2019-02-15T00:30:17.795Z,21
2019-02-15T00:31:06.971Z,21
2019-02-15T00:31:58.174Z,21
2019-02-15T00:32:47.403Z,21.1
2019-02-15T00:33:37.398Z,21.1
2019-02-15T00:34:28.354Z,21.1
2019-02-15T00:38:37.997Z,21.1
2019-02-15T00:39:27.381Z,21
2019-02-15T00:40:17.103Z,21
2019-02-15T00:41:07.415Z,20.9
2019-02-15T00:41:58.115Z,20.9
2019-02-15T00:42:47.822Z,20.9
2019-02-15T00:43:37.590Z,20.9
2019-02-15T00:44:28.493Z,20.9
2019-02-15T00:45:17.945Z,20.9
2019-02-15T00:46:07.431Z,20.9
2019-02-15T00:46:58.863Z,20.9
2019-02-15T00:47:48.361Z,20.9
2019-02-15T00:48:38.152Z,20.9
2019-02-15T00:49:28.832Z,20.9
2019-02-15T00:50:19.144Z,21
2019-02-15T00:51:08.330Z,21
2019-02-15T00:51:58.659Z,21.1
2019-02-15T00:52:48.752Z,21.1
2019-02-15T00:53:39.089Z,21.1
2019-02-15T00:54:29.102Z,21.1
2019-02-15T00:55:20.027Z,21.1
2019-02-15T00:57:49.387Z,21.2
2019-02-15T00:58:39.661Z,21.2
2019-02-15T00:59:30.379Z,21.2
2019-02-15T01:00:19.205Z,21.2
2019-02-15T01:02:49.949Z,21.2
2019-02-15T01:07:00.234Z,21.1
2019-02-15T01:07:50.380Z,21.1
2019-02-15T01:08:40.336Z,21
2019-02-15T01:09:29.437Z,20.9
2019-02-15T01:10:20.242Z,20.9
2019-02-15T01:11:09.794Z,20.9
2019-02-15T01:12:00.596Z,20.9
2019-02-15T01:12:49.806Z,21
2019-02-15T01:13:40.138Z,21
2019-02-15T01:14:30.474Z,21
2019-02-15T01:15:21.073Z,21
2019-02-15T01:16:10.403Z,21
2019-02-15T01:17:00.635Z,21.1
2019-02-15T01:21:11.195Z,21.2
2019-02-15T01:23:41.393Z,21.2
2019-02-15T01:24:30.619Z,21.2
2019-02-15T01:25:21.815Z,21.3
2019-02-15T01:26:11.030Z,21.3
2019-02-15T01:27:01.037Z,21.3
2019-02-15T01:27:51.365Z,21.3
2019-02-15T01:28:41.763Z,21.3
2019-02-15T01:29:31.505Z,21.3
2019-02-15T01:30:21.580Z,21.3
2019-02-15T01:31:11.905Z,21.3
2019-02-15T01:32:01.965Z,21.3
2019-02-15T01:32:52.030Z,21.2
2019-02-15T01:33:41.757Z,21.2
2019-02-15T01:36:11.995Z,21.1
2019-02-15T01:37:02.574Z,21.1
2019-02-15T01:37:52.637Z,21.1
2019-02-15T01:38:42.501Z,21
2019-02-15T01:39:32.484Z,21
2019-02-15T01:40:21.966Z,21
2019-02-15T01:41:12.558Z,21
2019-02-15T01:42:02.087Z,21
2019-02-15T01:42:52.114Z,21
2019-02-15T01:43:47.636Z,21
2019-02-15T01:44:32.872Z,21.1
2019-02-15T01:45:22.169Z,21
2019-02-15T01:46:12.945Z,21
2019-02-15T01:47:03.356Z,21.1
2019-02-15T01:47:52.509Z,21.1
2019-02-15T01:48:42.828Z,21.1
2019-02-15T01:52:03.138Z,21.2
2019-02-15T01:52:53.190Z,21.2
2019-02-15T01:53:43.533Z,21.2
2019-02-15T01:54:33.804Z,21.2
2019-02-15T01:55:23.583Z,21.2
2019-02-15T01:56:12.901Z,21.3
2019-02-15T01:57:03.474Z,21.3
2019-02-15T01:57:53.207Z,21.2
2019-02-15T01:58:44.116Z,21.2
2019-02-15T01:59:33.308Z,21.2
2019-02-15T02:00:23.130Z,21.2
2019-02-15T02:01:13.143Z,21.2
2019-02-15T02:02:04.023Z,21.2
2019-02-15T02:04:33.606Z,21.1
2019-02-15T02:05:23.721Z,21.1
2019-02-15T02:06:13.315Z,21
2019-02-15T02:07:03.800Z,21
2019-02-15T02:07:54.415Z,21
2019-02-15T02:08:44.795Z,20.9
2019-02-15T02:09:34.290Z,20.9
2019-02-15T02:10:23.532Z,21
2019-02-15T02:11:13.857Z,21
2019-02-15T02:12:04.217Z,21
2019-02-15T02:12:55.057Z,21
2019-02-15T02:13:53.857Z,21.1
2019-02-15T02:14:34.377Z,21.1
2019-02-15T02:15:25.250Z,21.1
2019-02-15T02:17:05.320Z,21.1
2019-02-15T02:17:55.434Z,21.1
2019-02-15T02:20:25.551Z,21.2
2019-02-15T02:21:15.370Z,21.2
2019-02-15T02:22:05.420Z,21.2
2019-02-15T02:24:35.559Z,21.1
2019-02-15T02:25:25.391Z,21.1
2019-02-15T02:26:15.402Z,21
2019-02-15T02:27:05.538Z,20.9
2019-02-15T02:27:55.787Z,20.9
2019-02-15T02:28:46.118Z,20.9
2019-02-15T02:29:35.938Z,20.9
2019-02-15T02:30:26.332Z,21
2019-02-15T02:31:15.618Z,21
2019-02-15T02:32:05.738Z,21.1
2019-02-15T02:32:55.888Z,21.1
2019-02-15T02:33:46.763Z,21.1
2019-02-15T02:37:06.834Z,21.2
2019-02-15T02:37:56.338Z,21.2
2019-02-15T02:38:46.065Z,21.3
2019-02-15T02:39:36.684Z,21.3
2019-02-15T02:40:25.871Z,21.3
2019-02-15T02:41:17.117Z,21.3
2019-02-15T02:42:06.803Z,21.3
2019-02-15T02:42:57.436Z,21.3
2019-02-15T02:43:46.210Z,21.3
2019-02-15T02:44:36.423Z,21.3
2019-02-15T02:45:26.590Z,21.3
2019-02-15T02:46:16.619Z,21.3
2019-02-15T02:47:07.424Z,21.2
2019-02-15T02:47:56.700Z,21.2
2019-02-15T02:49:37.018Z,21.2
2019-02-15T02:51:16.912Z,21.1
2019-02-15T02:52:07.750Z,21.1
2019-02-15T02:52:58.120Z,21.1
2019-02-15T02:53:47.625Z,21.1
2019-02-15T02:54:38.075Z,21
2019-02-15T02:55:27.240Z,21
2019-02-15T02:56:17.532Z,20.9
2019-02-15T02:57:07.596Z,21
2019-02-15T02:57:57.894Z,21
2019-02-15T02:58:47.999Z,21
2019-02-15T02:59:38.291Z,21.1
2019-02-15T03:01:18.480Z,21.2
2019-02-15T03:02:07.999Z,21.2
2019-02-15T03:02:58.200Z,21.2
2019-02-15T03:03:48.422Z,21.2
2019-02-15T03:04:38.419Z,21.2
2019-02-15T03:08:11.419Z,21.2
2019-02-15T03:09:00.037Z,21.3
2019-02-15T03:09:51.032Z,21.2
2019-02-15T03:10:41.359Z,21.3
2019-02-15T03:11:31.127Z,21.3
2019-02-15T03:12:21.152Z,21.2
2019-02-15T03:13:11.761Z,21.2
2019-02-15T03:14:13.287Z,21.2
2019-02-15T03:14:52.257Z,21.2
2019-02-15T03:15:41.654Z,21.2
2019-02-15T03:18:12.676Z,21.1
2019-02-15T03:19:02.181Z,21.1
2019-02-15T03:19:51.147Z,21.1
2019-02-15T03:20:42.626Z,21
2019-02-15T03:21:30.981Z,21
2019-02-15T03:22:22.146Z,21
2019-02-15T03:23:12.055Z,21
2019-02-15T03:24:03.061Z,21
2019-02-15T03:24:52.975Z,21
2019-02-15T03:25:42.968Z,21.1
2019-02-15T03:26:32.208Z,21.1
2019-02-15T03:27:22.585Z,21.1
2019-02-15T03:28:12.713Z,21.1
2019-02-15T03:30:43.549Z,21.2
2019-02-15T03:31:32.864Z,21.2
2019-02-15T03:32:23.417Z,21.2
2019-02-15T03:33:14.101Z,21.3
2019-02-15T03:34:03.662Z,21.3
2019-02-15T03:34:52.481Z,21.3
2019-02-15T03:35:42.243Z,21.3
2019-02-15T03:36:33.248Z,21.3
2019-02-15T03:37:23.715Z,21.4
2019-02-15T03:38:13.942Z,21.4
2019-02-15T03:39:03.602Z,21.4
2019-02-15T03:39:53.925Z,21.4
2019-02-15T03:40:43.976Z,21.4
2019-02-15T03:41:33.750Z,21.4
2019-02-15T03:42:23.861Z,21.3
2019-02-15T03:43:14.212Z,21.3
2019-02-15T03:44:04.114Z,21.3
2019-02-15T03:44:54.048Z,21.3
2019-02-15T03:45:44.670Z,21.3
2019-02-15T03:46:33.938Z,21.2
2019-02-15T03:47:24.379Z,21.2
2019-02-15T03:48:13.663Z,21.2
2019-02-15T03:49:04.376Z,21.1
2019-02-15T03:49:54.065Z,21.1
2019-02-15T03:50:44.652Z,21.1
2019-02-15T03:51:34.486Z,21.1
2019-02-15T03:52:24.536Z,21.1
2019-02-15T03:53:14.855Z,21.1
2019-02-15T03:58:13.848Z,21.2
2019-02-15T03:59:55.627Z,21.2
2019-02-15T04:00:45.373Z,21.2
2019-02-15T04:01:35.235Z,21.2
2019-02-15T04:02:24.152Z,21.2
2019-02-15T04:03:14.433Z,21.3
2019-02-15T04:04:05.003Z,21.3
2019-02-15T04:04:55.111Z,21.3
2019-02-15T04:05:45.453Z,21.3
2019-02-15T04:06:35.271Z,21.3
2019-02-15T04:07:25.722Z,21.4
2019-02-15T04:08:14.777Z,21.4
2019-02-15T04:09:05.995Z,21.4
2019-02-15T04:09:55.716Z,21.3
2019-02-15T04:10:45.723Z,21.3
2019-02-15T04:11:34.322Z,21.3
2019-02-15T04:12:26.198Z,21.2
2019-02-15T04:18:16.035Z,21.2
2019-02-15T04:19:05.483Z,21.2
2019-02-15T04:19:56.071Z,21.2
2019-02-15T04:20:46.195Z,21.3
2019-02-15T04:21:35.975Z,21.3
2019-02-15T04:22:26.000Z,21.3
2019-02-15T04:23:16.052Z,21.3
2019-02-15T04:24:07.123Z,21.3
2019-02-15T04:24:55.865Z,21.3
2019-02-15T04:25:46.425Z,21.4
2019-02-15T04:26:36.844Z,21.4
2019-02-15T04:27:26.981Z,21.4
2019-02-15T04:28:17.058Z,21.4
2019-02-15T04:29:07.095Z,21.3
2019-02-15T04:29:56.526Z,21.3
2019-02-15T04:30:47.206Z,21.3
2019-02-15T04:31:37.124Z,21.3
2019-02-15T04:32:27.779Z,21.3
2019-02-15T04:33:16.806Z,21.3
2019-02-15T04:34:07.074Z,21.2
2019-02-15T04:34:56.844Z,21.2
2019-02-15T04:36:37.011Z,21.1
2019-02-15T04:37:26.782Z,21.1
2019-02-15T04:38:17.681Z,21.1
2019-02-15T04:39:07.811Z,21.1
2019-02-15T04:39:57.463Z,21
2019-02-15T04:40:47.307Z,21.1
2019-02-15T04:41:37.468Z,21.1
2019-02-15T04:42:27.376Z,21.1
2019-02-15T04:43:17.684Z,21.1
2019-02-15T04:44:08.318Z,21.1
2019-02-15T04:45:47.616Z,21.2
2019-02-15T04:46:38.323Z,21.3
2019-02-15T04:47:27.822Z,21.3
2019-02-15T04:48:18.348Z,21.3
2019-02-15T04:49:08.146Z,21.3
2019-02-15T04:49:58.268Z,21.3
2019-02-15T04:50:48.600Z,21.3
2019-02-15T04:51:38.875Z,21.3
2019-02-15T04:52:28.648Z,21.3
2019-02-15T04:53:19.227Z,21.3
2019-02-15T04:54:08.442Z,21.4
2019-02-15T04:54:59.087Z,21.4
2019-02-15T04:55:48.850Z,21.4
2019-02-15T04:56:38.647Z,21.4
2019-02-15T04:57:27.866Z,21.3
2019-02-15T04:58:18.691Z,21.2
2019-02-15T04:59:59.113Z,21.1
2019-02-15T05:00:49.225Z,21
2019-02-15T05:01:38.935Z,20.9
2019-02-15T05:02:28.984Z,20.8
2019-02-15T05:03:22.567Z,20.8
2019-02-15T05:04:09.654Z,20.7
2019-02-15T05:04:59.204Z,20.7
2019-02-15T05:05:49.289Z,20.6
2019-02-15T05:06:39.435Z,20.6
2019-02-15T05:07:28.554Z,20.5
2019-02-15T05:08:19.764Z,20.5
2019-02-15T05:09:09.495Z,20.4
2019-02-15T05:09:59.530Z,20.4
2019-02-15T05:10:49.319Z,20.4
2019-02-15T05:11:40.000Z,20.4
2019-02-15T05:12:29.466Z,20.4
2019-02-15T05:13:20.101Z,20.4
2019-02-15T05:14:10.119Z,20.4
2019-02-15T05:15:00.446Z,20.4
2019-02-15T05:15:50.209Z,20.4
2019-02-15T05:16:40.596Z,20.4
2019-02-15T05:17:29.743Z,20.4
2019-02-15T05:18:20.164Z,20.5
2019-02-15T05:19:09.899Z,20.5
2019-02-15T05:20:00.745Z,20.5
2019-02-15T05:20:50.541Z,20.5
2019-02-15T05:21:40.603Z,20.5
2019-02-15T05:22:31.169Z,20.6
2019-02-15T05:23:20.246Z,20.6
2019-02-15T05:24:11.383Z,20.6
2019-02-15T05:25:01.106Z,20.6
2019-02-15T05:25:50.621Z,20.6
2019-02-15T05:26:40.133Z,20.5
2019-02-15T05:27:30.498Z,20.5
2019-02-15T05:28:21.076Z,20.4
2019-02-15T05:29:11.465Z,20.4
2019-02-15T05:30:01.231Z,20.4
2019-02-15T05:30:51.044Z,20.4
2019-02-15T05:31:41.028Z,20.4
2019-02-15T05:32:31.615Z,20.4
2019-02-15T05:33:20.381Z,20.4
2019-02-15T05:34:11.486Z,20.4
2019-02-15T05:35:01.548Z,20.4
2019-02-15T05:35:51.360Z,20.4
2019-02-15T05:36:41.942Z,20.4
2019-02-15T05:37:31.797Z,20.6
2019-02-15T05:38:22.123Z,20.6
2019-02-15T05:39:12.070Z,20.6
2019-02-15T05:40:01.792Z,20.8
2019-02-15T05:40:51.958Z,20.8
2019-02-15T05:41:42.347Z,20.8
2019-02-15T05:42:32.366Z,20.9
2019-02-15T05:43:22.086Z,20.8
2019-02-15T05:44:11.929Z,20.8
2019-02-15T05:45:10.934Z,20.9
2019-02-15T05:45:51.495Z,20.8
2019-02-15T05:46:42.925Z,20.8
2019-02-15T05:47:32.389Z,20.8
2019-02-15T05:48:22.210Z,20.8
2019-02-15T05:49:12.252Z,20.8
2019-02-15T05:50:02.600Z,20.8
2019-02-15T05:50:52.313Z,20.8
2019-02-15T05:51:42.371Z,20.8
2019-02-15T05:52:32.449Z,20.8
2019-02-15T05:53:23.314Z,20.9
2019-02-15T05:54:12.529Z,20.9
2019-02-15T05:55:02.099Z,20.9
2019-02-15T05:55:52.463Z,21
2019-02-15T05:56:42.775Z,21.1
2019-02-15T05:57:32.801Z,21.1
2019-02-15T05:58:22.296Z,21
2019-02-15T05:59:11.801Z,21
2019-02-15T06:00:03.198Z,21
2019-02-15T06:00:53.046Z,21
2019-02-15T06:01:41.844Z,20.9
2019-02-15T06:02:33.206Z,20.9
2019-02-15T06:03:23.193Z,20.9
2019-02-15T06:04:13.288Z,20.9
2019-02-15T06:06:11.651Z,20.9
2019-02-15T06:07:01.305Z,20.9
2019-02-15T06:07:52.038Z,20.9
2019-02-15T06:08:40.645Z,20.8
2019-02-15T06:09:31.275Z,20.9
2019-02-15T06:10:21.888Z,20.8
2019-02-15T06:11:15.421Z,20.8
2019-02-15T06:12:01.671Z,20.8
2019-02-15T06:12:51.605Z,20.8
2019-02-15T06:13:41.235Z,20.6
2019-02-15T06:14:31.592Z,20.3
2019-02-15T06:15:22.090Z,20.1
2019-02-15T06:16:11.415Z,19.9
2019-02-15T06:17:04.564Z,19.9
2019-02-15T06:17:52.609Z,20
2019-02-15T06:18:42.454Z,20.1
2019-02-15T06:19:31.062Z,20.1
2019-02-15T06:20:22.252Z,20.1
2019-02-15T06:21:12.899Z,20.1
2019-02-15T06:22:02.591Z,20.1
2019-02-15T06:22:52.139Z,20.1
2019-02-15T06:23:42.180Z,20.1
2019-02-15T06:24:32.525Z,20.1
2019-02-15T06:25:22.253Z,20.1
2019-02-15T06:26:12.612Z,20.1
2019-02-15T06:27:02.974Z,20.2
2019-02-15T06:27:53.462Z,20.1
2019-02-15T06:28:42.832Z,20.2
2019-02-15T06:29:32.870Z,20.2
2019-02-15T06:30:23.011Z,20.2
2019-02-15T06:31:12.209Z,20.1
2019-02-15T06:32:03.270Z,20.2
2019-02-15T06:32:53.366Z,20.2
2019-02-15T06:33:42.589Z,20.2
2019-02-15T06:34:32.632Z,20.2
2019-02-15T06:35:22.413Z,20.1
2019-02-15T06:36:13.361Z,20.1
2019-02-15T06:37:03.428Z,20.1
2019-02-15T06:37:53.709Z,20.2
2019-02-15T06:38:42.916Z,20.2
2019-02-15T06:39:33.514Z,20.2
2019-02-15T06:40:23.026Z,20.1
2019-02-15T06:41:15.565Z,20.1
2019-02-15T06:42:03.762Z,20
2019-02-15T06:42:54.462Z,19.9
2019-02-15T06:43:44.179Z,19.9
2019-02-15T06:44:33.846Z,19.9
2019-02-15T06:45:32.212Z,19.8
2019-02-15T06:46:14.028Z,19.8
2019-02-15T06:47:03.765Z,19.7
2019-02-15T06:47:54.410Z,19.7
2019-02-15T06:48:44.236Z,19.6
2019-02-15T06:49:34.490Z,19.5
2019-02-15T06:50:23.808Z,19.5
2019-02-15T06:51:14.383Z,19.6
2019-02-15T06:52:04.461Z,19.7
2019-02-15T06:52:53.967Z,19.8
2019-02-15T06:53:44.550Z,19.9
2019-02-15T06:54:34.317Z,20
2019-02-15T06:55:24.332Z,20.1
2019-02-15T06:56:14.952Z,20.2
2019-02-15T06:57:04.722Z,20.3
2019-02-15T06:57:54.772Z,20.3
2019-02-15T06:58:52.592Z,20.3
2019-02-15T06:59:33.777Z,20.3
2019-02-15T07:00:24.392Z,20.3
2019-02-15T07:01:15.022Z,20.4
2019-02-15T07:02:05.054Z,20.4
2019-02-15T07:02:54.356Z,20.4
2019-02-15T07:03:47.005Z,20.4
2019-02-15T07:06:10.769Z,20.4
2019-02-15T07:07:01.131Z,20.4
2019-02-15T07:07:51.922Z,20.4
2019-02-15T07:08:41.762Z,20.5
2019-02-15T07:09:31.424Z,20.5
2019-02-15T07:10:35.539Z,20.6
2019-02-15T07:11:12.057Z,20.6
2019-02-15T07:12:01.374Z,20.6
2019-02-15T07:12:51.946Z,20.7
2019-02-15T07:13:41.381Z,20.8
2019-02-15T07:14:32.054Z,20.8
2019-02-15T07:16:11.769Z,20.8
2019-02-15T07:17:01.876Z,20.8
2019-02-15T07:17:52.432Z,20.7
2019-02-15T07:18:42.468Z,20.6
2019-02-15T07:20:01.431Z,20.6
2019-02-15T07:20:21.571Z,20.6
2019-02-15T07:21:12.406Z,20.6
2019-02-15T07:22:17.631Z,20.6
2019-02-15T07:23:07.334Z,20.6
2019-02-15T07:23:43.158Z,20.6
2019-02-15T07:24:31.716Z,20.6
2019-02-15T07:25:22.148Z,20.6
2019-02-15T07:26:27.579Z,20.6
2019-02-15T07:27:02.711Z,20.6
2019-02-15T07:27:53.023Z,20.7
2019-02-15T07:28:45.346Z,20.7
2019-02-15T07:29:33.497Z,20.7
2019-02-15T07:30:22.810Z,20.7
2019-02-15T07:32:01.868Z,20.6
2019-02-15T07:33:07.161Z,20.6
2019-02-15T07:33:43.482Z,20.6
2019-02-15T07:34:47.178Z,20.6
2019-02-15T07:35:37.602Z,20.6
2019-02-15T07:36:15.073Z,20.6
2019-02-15T07:37:35.093Z,20.6
2019-02-15T07:37:53.883Z,20.6
2019-02-15T07:38:42.865Z,20.7
2019-02-15T07:39:48.772Z,20.7
2019-02-15T07:40:22.940Z,20.8
2019-02-15T07:41:28.280Z,20.8
2019-02-15T07:42:17.442Z,20.8
2019-02-15T07:43:43.997Z,20.8
2019-02-15T07:44:34.154Z,20.8
2019-02-15T07:45:25.652Z,20.8
2019-02-15T07:46:28.364Z,20.8
2019-02-15T07:47:04.064Z,20.8
2019-02-15T07:47:54.961Z,20.8
2019-02-15T07:48:43.532Z,20.8
2019-02-15T07:49:34.835Z,20.8
2019-02-15T07:50:25.379Z,20.8
2019-02-15T07:51:15.062Z,20.8
2019-02-15T07:52:59.072Z,20.8
2019-02-15T07:53:49.292Z,20.8
2019-02-15T07:54:38.673Z,20.8
2019-02-15T07:55:28.740Z,20.8
2019-02-15T07:56:18.339Z,20.8
2019-02-15T07:57:09.196Z,20.8
2019-02-15T07:57:58.929Z,20.8
2019-02-15T07:58:48.451Z,20.8
2019-02-15T07:59:38.205Z,20.8
2019-02-15T08:00:28.902Z,20.8
2019-02-15T08:01:19.013Z,20.8
2019-02-15T08:02:09.751Z,20.8
2019-02-15T08:02:59.341Z,20.9
2019-02-15T08:03:49.576Z,20.9
2019-02-15T08:04:39.638Z,20.9
2019-02-15T08:05:29.961Z,20.9
2019-02-15T08:06:19.836Z,20.9
2019-02-15T08:07:09.593Z,20.9
2019-02-15T08:07:58.886Z,20.9
2019-02-15T08:08:49.868Z,20.8
2019-02-15T08:09:39.777Z,20.8
2019-02-15T08:10:28.951Z,20.9
2019-02-15T08:11:19.001Z,20.9
2019-02-15T08:12:09.643Z,20.9
2019-02-15T08:12:59.408Z,21
2019-02-15T08:13:49.212Z,21
2019-02-15T08:14:40.171Z,20.9
2019-02-15T08:15:39.665Z,20.9
2019-02-15T08:16:20.450Z,20.9
2019-02-15T08:17:09.787Z,20.9
2019-02-15T08:17:59.517Z,20.8
2019-02-15T08:18:50.705Z,20.8
2019-02-15T08:19:40.963Z,20.6
2019-02-15T08:20:29.617Z,20.6
2019-02-15T08:21:20.260Z,20.6
2019-02-15T08:22:10.850Z,20.6
2019-02-15T08:23:00.923Z,20.6
2019-02-15T08:23:50.717Z,20.6
2019-02-15T08:24:40.192Z,20.5
2019-02-15T08:25:30.789Z,20.5
2019-02-15T08:26:21.128Z,20.4
2019-02-15T08:27:10.955Z,20.5
2019-02-15T08:28:00.420Z,20.4
2019-02-15T08:28:51.427Z,20.4
2019-02-15T08:29:40.554Z,20.4
2019-02-15T08:30:31.147Z,20.4
2019-02-15T08:31:20.934Z,20.4
2019-02-15T08:32:12.266Z,20.4
2019-02-15T08:33:01.024Z,20.4
2019-02-15T08:33:51.662Z,20.3
2019-02-15T08:34:42.457Z,20.3
2019-02-15T08:35:31.137Z,20.3
2019-02-15T08:36:21.569Z,20.3
2019-02-15T08:37:13.835Z,20.4
2019-02-15T08:38:01.426Z,20.4
2019-02-15T08:38:52.644Z,20.4
2019-02-15T08:39:41.761Z,20.3
2019-02-15T08:40:32.640Z,20.4
2019-02-15T08:41:22.679Z,20.4
2019-02-15T08:42:11.466Z,20.4
2019-02-15T08:43:02.249Z,20.4
2019-02-15T08:43:52.349Z,20.4
2019-02-15T08:44:42.563Z,20.3
2019-02-15T08:45:32.502Z,20.4
2019-02-15T08:46:21.869Z,20.4
2019-02-15T08:47:11.936Z,20.4
2019-02-15T08:48:03.283Z,20.4
2019-02-15T08:48:53.386Z,20.4
2019-02-15T08:49:42.898Z,20.3
2019-02-15T08:50:32.484Z,20.4
2019-02-15T08:51:22.294Z,20.4
2019-02-15T08:52:13.633Z,20.4
2019-02-15T08:53:02.156Z,20.4
2019-02-15T08:53:54.825Z,20.4
2019-02-15T08:54:42.586Z,20.5
2019-02-15T08:55:31.638Z,20.5
2019-02-15T08:56:23.435Z,20.4
2019-02-15T08:57:13.034Z,20.5
2019-02-15T08:58:02.012Z,20.5
2019-02-15T08:58:52.861Z,20.6
2019-02-15T08:59:43.140Z,20.6
2019-02-15T09:00:32.978Z,20.8
2019-02-15T09:01:22.950Z,20.9
2019-02-15T09:02:12.997Z,20.9
2019-02-15T09:03:17.989Z,21
2019-02-15T09:03:53.235Z,21.1
2019-02-15T09:05:33.317Z,21.2
2019-02-15T09:06:23.299Z,21.3
2019-02-15T09:07:14.184Z,21.3
2019-02-15T09:08:03.137Z,21.3
2019-02-15T09:08:53.508Z,21.3
2019-02-15T09:09:43.832Z,21.3
2019-02-15T09:10:33.554Z,21.4
2019-02-15T09:11:23.719Z,21.5
2019-02-15T09:12:14.535Z,21.5
2019-02-15T09:13:04.271Z,21.6
2019-02-15T09:13:53.317Z,21.6
2019-02-15T09:14:43.645Z,21.6
2019-02-15T09:15:33.386Z,21.6
2019-02-15T09:16:23.921Z,21.6
2019-02-15T09:17:13.741Z,21.6
2019-02-15T09:18:03.309Z,21.6
2019-02-15T09:18:54.604Z,21.6
2019-02-15T09:19:44.656Z,21.7
2019-02-15T09:20:34.473Z,21.7
2019-02-15T09:21:24.838Z,21.7
2019-02-15T09:22:15.113Z,21.7
2019-02-15T09:23:04.903Z,21.7
2019-02-15T09:23:55.993Z,21.8
2019-02-15T09:24:45.023Z,21.8
2019-02-15T09:25:35.696Z,21.8
2019-02-15T09:26:24.903Z,21.8
2019-02-15T09:27:14.976Z,21.8
2019-02-15T09:28:04.751Z,21.8
2019-02-15T09:28:55.110Z,21.8
2019-02-15T09:29:45.128Z,21.8
2019-02-15T09:30:34.913Z,21.8
2019-02-15T09:31:25.308Z,21.8
2019-02-15T09:32:15.050Z,21.8
2019-02-15T09:33:05.370Z,21.8
2019-02-15T09:33:55.313Z,21.9
2019-02-15T09:34:45.568Z,21.9
2019-02-15T09:35:35.522Z,21.9
2019-02-15T09:36:26.100Z,21.9
2019-02-15T09:37:15.900Z,21.9
2019-02-15T09:38:06.592Z,21.9
2019-02-15T09:38:56.518Z,21.9
2019-02-15T09:39:46.083Z,21.9
2019-02-15T09:40:36.006Z,21.9
2019-02-15T09:41:26.430Z,21.9
2019-02-15T09:42:16.735Z,21.9
2019-02-15T09:43:06.298Z,21.9
2019-02-15T09:43:56.341Z,21.9
2019-02-15T09:44:46.917Z,22
2019-02-15T09:45:38.965Z,22
2019-02-15T09:46:26.674Z,22
2019-02-15T09:47:17.427Z,22
2019-02-15T09:48:06.622Z,21.9
2019-02-15T09:48:56.779Z,22
2019-02-15T09:49:51.347Z,22
2019-02-15T09:50:37.371Z,22
2019-02-15T09:51:26.327Z,22
2019-02-15T09:52:17.179Z,22.1
2019-02-15T09:53:07.227Z,22.1
2019-02-15T09:53:57.597Z,22.1
2019-02-15T09:54:47.684Z,22
2019-02-15T09:55:37.252Z,22.1
2019-02-15T09:56:28.011Z,22.1
2019-02-15T09:57:18.076Z,22.1
2019-02-15T09:58:07.416Z,22.1
2019-02-15T09:58:56.881Z,22.1
2019-02-15T09:59:47.439Z,22.1
2019-02-15T10:00:37.744Z,22.1
2019-02-15T10:01:28.071Z,22.1
2019-02-15T10:02:16.513Z,22.1
2019-02-15T10:03:07.389Z,22.1
2019-02-15T10:04:00.316Z,22.1
2019-02-15T10:04:47.790Z,22.1
2019-02-15T10:07:11.273Z,22.1
2019-02-15T10:08:00.450Z,22.1
2019-02-15T10:08:50.908Z,22.1
2019-02-15T10:09:43.507Z,22.1
2019-02-15T10:10:31.583Z,22.1
2019-02-15T10:11:21.256Z,22
2019-02-15T10:12:11.378Z,22.1
2019-02-15T10:13:01.458Z,22
2019-02-15T10:13:51.940Z,22
2019-02-15T10:14:40.935Z,21.9
2019-02-15T10:15:32.100Z,21.9
2019-02-15T10:16:32.942Z,21.9
2019-02-15T10:17:10.936Z,21.8
2019-02-15T10:18:00.412Z,21.8
2019-02-15T10:18:52.055Z,21.8
2019-02-15T10:19:42.513Z,21.7
2019-02-15T10:20:30.627Z,21.7
2019-02-15T10:21:21.982Z,21.6
2019-02-15T10:22:14.453Z,21.6
2019-02-15T10:23:02.353Z,21.6
2019-02-15T10:23:52.155Z,21.6
2019-02-15T10:24:42.563Z,21.6
2019-02-15T10:25:32.538Z,21.6
2019-02-15T10:26:22.577Z,21.5
2019-02-15T10:27:11.745Z,21.5
2019-02-15T10:28:02.217Z,21.4
2019-02-15T10:28:52.064Z,21.5
2019-02-15T10:29:42.230Z,21.4
2019-02-15T10:30:32.641Z,21.4
2019-02-15T10:31:22.364Z,21.4
2019-02-15T10:32:13.542Z,21.4
2019-02-15T10:33:03.079Z,21.4
2019-02-15T10:33:52.849Z,21.4
2019-02-15T10:34:42.639Z,21.4
2019-02-15T10:35:33.172Z,21.4
2019-02-15T10:36:25.036Z,21.4
2019-02-15T10:37:12.222Z,21.4
2019-02-15T10:38:02.436Z,21.4
2019-02-15T10:38:53.274Z,21.3
2019-02-15T10:39:42.951Z,21.3
2019-02-15T10:40:33.559Z,21.3
2019-02-15T10:41:23.614Z,21.3
2019-02-15T10:42:28.039Z,21.3
2019-02-15T10:43:03.218Z,21.3
2019-02-15T10:43:53.526Z,21.3
2019-02-15T10:44:43.559Z,21.3
2019-02-15T10:45:32.881Z,21.3
2019-02-15T10:46:23.463Z,21.3
2019-02-15T10:47:31.094Z,21.3
2019-02-15T10:48:03.308Z,21.3
2019-02-15T10:48:53.568Z,21.3
2019-02-15T10:49:43.931Z,21.3
2019-02-15T10:50:33.441Z,21.2
2019-02-15T10:51:24.086Z,21.2
2019-02-15T10:52:13.851Z,21.2
2019-02-15T10:53:54.305Z,21.2
2019-02-15T10:57:14.730Z,21.2
2019-02-15T11:04:46.110Z,21.1
2019-02-15T11:05:35.285Z,21.1
2019-02-15T11:06:24.502Z,21.1
2019-02-15T11:07:14.300Z,21.1
2019-02-15T11:08:05.252Z,21.1
2019-02-15T11:08:55.267Z,21.1
2019-02-15T11:09:44.737Z,21.1
2019-02-15T11:10:37.569Z,21
2019-02-15T11:11:25.149Z,21.1
2019-02-15T11:12:15.455Z,21.1
2019-02-15T11:13:05.517Z,21.1
2019-02-15T11:13:54.524Z,21.1
2019-02-15T11:14:45.922Z,21.1
2019-02-15T11:15:35.959Z,21
2019-02-15T11:16:24.982Z,21.1
2019-02-15T11:17:15.369Z,21
2019-02-15T11:18:06.238Z,21
2019-02-15T11:18:56.209Z,21
2019-02-15T11:19:45.977Z,21
2019-02-15T11:20:35.753Z,21
2019-02-15T11:21:26.406Z,21
2019-02-15T11:22:15.881Z,21
2019-02-15T11:23:05.676Z,21
2019-02-15T11:23:56.307Z,21
2019-02-15T11:24:46.579Z,20.9
2019-02-15T11:25:36.387Z,21
2019-02-15T11:26:31.379Z,20.9
2019-02-15T11:27:16.513Z,20.9
2019-02-15T11:28:06.816Z,20.9
2019-02-15T11:28:56.606Z,20.9
2019-02-15T11:29:47.028Z,20.9
2019-02-15T11:30:36.728Z,20.9
2019-02-15T11:31:26.816Z,20.9
2019-02-15T11:32:16.918Z,20.9
2019-02-15T11:33:06.391Z,20.9
2019-02-15T11:33:57.556Z,20.9
2019-02-15T11:34:47.586Z,20.9
2019-02-15T11:35:37.382Z,21
2019-02-15T11:36:26.920Z,21.1
2019-02-15T11:38:06.292Z,21.2
2019-02-15T11:38:57.105Z,21.3
2019-02-15T11:39:47.161Z,21.4
2019-02-15T11:40:36.528Z,21.5
2019-02-15T11:41:27.213Z,21.5
2019-02-15T11:42:17.558Z,21.5
2019-02-15T11:43:07.358Z,21.5
2019-02-15T11:43:57.401Z,21.5
2019-02-15T11:44:47.538Z,21.4
2019-02-15T11:45:38.435Z,21.5
2019-02-15T11:46:28.420Z,21.5
2019-02-15T11:47:17.613Z,21.4
2019-02-15T11:48:07.687Z,21.4
2019-02-15T11:48:56.773Z,21.4
2019-02-15T11:49:46.977Z,21.4
2019-02-15T11:50:37.402Z,21.4
2019-02-15T11:51:27.422Z,21.6
2019-02-15T11:52:18.342Z,21.6
2019-02-15T11:53:08.369Z,21.7
2019-02-15T11:54:00.590Z,21.7
2019-02-15T11:54:48.002Z,21.8
2019-02-15T11:55:38.425Z,21.8
2019-02-15T11:56:28.242Z,21.8
2019-02-15T11:57:18.554Z,21.8
2019-02-15T11:58:08.666Z,21.8
2019-02-15T11:58:59.602Z,21.8
2019-02-15T11:59:49.074Z,21.8
2019-02-15T12:00:39.246Z,21.7
2019-02-15T12:01:29.208Z,21.7
2019-02-15T12:02:19.512Z,21.6
2019-02-15T12:03:09.263Z,21.7
2019-02-15T12:03:59.370Z,21.7
2019-02-15T12:04:49.679Z,21.7
2019-02-15T12:07:10.794Z,21.8
2019-02-15T12:08:52.136Z,21.9
2019-02-15T12:09:41.659Z,21.9
2019-02-15T12:10:30.769Z,21.9
2019-02-15T12:11:21.974Z,21.9
2019-02-15T12:12:32.104Z,21.9
2019-02-15T12:13:01.132Z,21.8
2019-02-15T12:13:51.526Z,21.8
2019-02-15T12:14:41.130Z,21.8
2019-02-15T12:15:45.591Z,21.8
2019-02-15T12:16:21.548Z,21.8
2019-02-15T12:17:13.076Z,21.8
2019-02-15T12:18:01.744Z,21.8
2019-02-15T12:18:52.345Z,21.8
2019-02-15T12:19:56.863Z,21.8
2019-02-15T12:20:31.801Z,21.9
2019-02-15T12:21:22.800Z,21.9
2019-02-15T12:22:13.083Z,21.9
2019-02-15T12:23:03.102Z,21.9
2019-02-15T12:24:07.369Z,21.9
2019-02-15T12:24:41.785Z,21.9
2019-02-15T12:25:31.393Z,21.9
2019-02-15T12:26:21.465Z,21.9
2019-02-15T12:27:12.270Z,21.9
2019-02-15T12:28:02.078Z,21.8